Map

Track Data

SID SEASON NUMBER BASIN SUBBASIN NAME ISO_TIME NATURE LAT LON WMO_WIND WMO_PRES WMO_AGENCY TRACK_TYPE DIST2LAND LANDFALL IFLAG USA_AGENCY USA_ATCF_ID USA_LAT USA_LON USA_RECORD USA_STATUS USA_WIND USA_PRES USA_SSHS USA_R34_NE USA_R34_SE USA_R34_SW USA_R34_NW USA_R50_NE USA_R50_SE USA_R50_SW USA_R50_NW USA_R64_NE USA_R64_SE USA_R64_SW USA_R64_NW USA_POCI USA_ROCI USA_RMW USA_EYE TOKYO_LAT TOKYO_LON TOKYO_GRADE TOKYO_WIND TOKYO_PRES TOKYO_R50_DIR TOKYO_R50_LONG TOKYO_R50_SHORT TOKYO_R30_DIR TOKYO_R30_LONG TOKYO_R30_SHORT TOKYO_LAND CMA_LAT CMA_LON CMA_CAT CMA_WIND CMA_PRES HKO_LAT HKO_LON HKO_CAT HKO_WIND HKO_PRES NEWDELHI_LAT NEWDELHI_LON NEWDELHI_GRADE NEWDELHI_WIND NEWDELHI_PRES NEWDELHI_CI NEWDELHI_DP NEWDELHI_POCI REUNION_LAT REUNION_LON REUNION_TYPE REUNION_WIND REUNION_PRES REUNION_TNUM REUNION_CI REUNION_RMW REUNION_R34_NE REUNION_R34_SE REUNION_R34_SW REUNION_R34_NW REUNION_R50_NE REUNION_R50_SE REUNION_R50_SW REUNION_R50_NW REUNION_R64_NE REUNION_R64_SE REUNION_R64_SW REUNION_R64_NW BOM_LAT BOM_LON BOM_TYPE BOM_WIND BOM_PRES BOM_TNUM BOM_CI BOM_RMW BOM_R34_NE BOM_R34_SE BOM_R34_SW BOM_R34_NW BOM_R50_NE BOM_R50_SE BOM_R50_SW BOM_R50_NW BOM_R64_NE BOM_R64_SE BOM_R64_SW BOM_R64_NW BOM_ROCI BOM_POCI BOM_EYE BOM_POS_METHOD BOM_PRES_METHOD NADI_LAT NADI_LON NADI_CAT NADI_WIND NADI_PRES WELLINGTON_LAT WELLINGTON_LON WELLINGTON_WIND WELLINGTON_PRES DS824_LAT DS824_LON DS824_STAGE DS824_WIND DS824_PRES TD9636_LAT TD9636_LON TD9636_STAGE TD9636_WIND TD9636_PRES TD9635_LAT TD9635_LON TD9635_WIND TD9635_PRES TD9635_ROCI NEUMANN_LAT NEUMANN_LON NEUMANN_CLASS NEUMANN_WIND NEUMANN_PRES MLC_LAT MLC_LON MLC_CLASS MLC_WIND MLC_PRES USA_GUST BOM_GUST BOM_GUST_PER REUNION_GUST REUNION_GUST_PER USA_SEAHGT USA_SEARAD_NE USA_SEARAD_SE USA_SEARAD_SW USA_SEARAD_NW STORM_SPEED STORM_DIR
1947191N19091 1947 43 NI BB NOT_NAMED 1947-07-09 18:00:00 TS 18.9000 90.6000 main 270 270 O________O____ jtwc_io IO061947 18.9000 90.6000 -1 18.9000 90.6000 TC 3 270
1947191N19091 1947 43 NI BB NOT_NAMED 1947-07-09 21:00:00 TS 18.9000 90.4675 main 278 278 P________P____ IO061947 18.9000 90.4675 -1 18.9000 90.4675 TC 3 270
1947191N19091 1947 43 NI BB NOT_NAMED 1947-07-10 00:00:00 TS 18.9000 90.3000 main 296 296 O________O____ jtwc_io IO061947 18.9000 90.3000 -1 18.9000 90.3000 TC 25 4 270
1947191N19091 1947 43 NI BB NOT_NAMED 1947-07-10 03:00:00 TS 18.9000 90.0756 main 313 310 P________PO___ IO061947 18.9000 90.0725 -1 18.9000 90.0725 TC 25 18.9000 90.1000 1 5 270
1947191N19091 1947 43 NI BB NOT_NAMED 1947-07-10 06:00:00 TS 18.9011 89.7928 main 310 304 O________OP___ jtwc_io IO061947 18.9000 89.8000 -1 18.9000 89.8000 TC 25 18.9054 89.7641 1 6 270
1947191N19091 1947 43 NI BB NOT_NAMED 1947-07-10 09:00:00 TS 18.9023 89.4843 main 304 302 P________PP___ IO061947 18.9000 89.5000 -1 18.9000 89.5000 TC 25 18.9083 89.4425 1 6 270
1947191N19091 1947 43 NI BB NOT_NAMED 1947-07-10 12:00:00 TS 18.9024 89.1832 main 302 278 O________OP___ jtwc_io IO061947 18.9000 89.2000 -1 18.9000 89.2000 TC 25 18.9071 89.1497 1 5 270
1947191N19091 1947 43 NI BB NOT_NAMED 1947-07-10 15:00:00 TS 18.9050 88.9233 main 278 261 P________PO___ IO061947 18.9075 88.9350 -1 18.9075 88.9350 TC 25 18.9000 88.9000 1 5 269
1947191N19091 1947 43 NI BB NOT_NAMED 1947-07-10 18:00:00 TS 18.8952 88.6999 main 261 245 O________OP___ jtwc_io IO061947 18.9000 88.7000 -1 18.9000 88.7000 TC 25 18.8857 88.6997 1 4 263
1947191N19091 1947 43 NI BB NOT_NAMED 1947-07-10 21:00:00 TS 18.8547 88.5075 main 245 237 P________PP___ IO061947 18.8499 88.5000 -1 18.8499 88.5000 TC 30 18.8643 88.5226 1 4 257
1947191N19091 1947 43 NI BB NOT_NAMED 1947-07-11 00:00:00 TS 18.8119 88.3114 main 237 222 O________OP___ jtwc_io IO061947 18.8000 88.3000 -1 18.8000 88.3000 TC 35 18.8357 88.3342 1 4 263
1947191N19091 1947 43 NI BB NOT_NAMED 1947-07-11 03:00:00 TS 18.8049 88.0868 main 222 198 P________PO___ IO061947 18.8074 88.0801 -1 18.8074 88.0801 TC 35 18.8000 88.1000 2 5 266
1947191N19091 1947 43 NI BB NOT_NAMED 1947-07-11 06:00:00 TS 18.7816 87.7971 main 198 179 O________OP___ jtwc_io IO061947 18.8000 87.8000 -1 18.8000 87.8000 TC 35 18.7449 87.7913 2 6 260
1947191N19091 1947 43 NI BB NOT_NAMED 1947-07-11 09:00:00 TS 18.6950 87.4256 main 179 167 P________PP___ IO061947 18.7000 87.4223 -1 18.7000 87.4223 TC 35 18.6848 87.4321 2 8 257
1947191N19091 1947 43 NI BB NOT_NAMED 1947-07-11 12:00:00 TS 18.6108 87.0106 main 168 154 O________OP___ jtwc_io IO061947 18.6000 87.0000 -1 18.6000 87.0000 TC 35 18.6323 87.0319 2 8 262
1947191N19091 1947 43 NI BB NOT_NAMED 1947-07-11 15:00:00 TS 18.5899 86.6101 main 154 139 P________PO___ IO061947 18.5848 86.6151 -1 18.5848 86.6151 TC 35 18.6000 86.6000 3 8 269
1947191N19091 1947 43 NI BB NOT_NAMED 1947-07-11 18:00:00 TS 18.5988 86.1780 main 139 113 O________OP___ jtwc_io IO061947 18.6000 86.2000 -1 18.6000 86.2000 TC 35 18.5971 86.1451 3 9 271
1947191N19091 1947 43 NI BB NOT_NAMED 1947-07-11 21:00:00 TS 18.6110 85.6998 main 113 67 P________PP___ IO061947 18.6054 85.7199 -1 18.6054 85.7199 TC 30 18.6185 85.6731 3 9 272
1947191N19091 1947 43 NI BB NOT_NAMED 1947-07-12 00:00:00 TS 18.6278 85.1947 main 67 15 O________OP___ jtwc_io IO061947 18.6000 85.2000 -1 18.6000 85.2000 TC 25 18.6557 85.1895 3 10 275
1947191N19091 1947 43 NI BB NOT_NAMED 1947-07-12 03:00:00 NR 18.7000 84.7000 main 15 __________O___ IO061947 -1 TC 18.7000 84.7000 1 9 279

About IBTrACS Database

This database is a web-friendly format of International Best Track Archive for Climate Stewardship (IBTrACS), a global best track data archive curated by NOAA dating back to 1842.

Updated: 2021-10-08